Terminal Aerodrome Forecast
Issued by NWS

Home | Current Version | Previous Version | Text Only | Print | Product List | Glossary On
Versions: 1 2 3 4 5 6 7 8 9 10 11 12 13 14 15
000
FTUS41 KAKQ 211700 RRA
TAFPHF
TAF
KPHF 211743Z 2118/2218 25006KT P6SM SCT100 BKN250
     FM220300 32004KT P6SM BKN040
     FM220900 32007KT P6SM BKN015
     FM221500 32010G15KT P6SM BKN020=

USA.gov is the U.S. government's official web portal to all federal, state and local government web resources and services.